Time;durP1;ratioP1;P1;durP2;ratioP2;P2;SDS_P1;SDS_P2;PMS_P1;PMS_P2;Temp;Humidity;BMP_temperature;BMP_pressure;BME280_temperature;BME280_humidity;BME280_pressure;Samples;Min_cycle;Max_cycle;Signal;HPM_P1;HPM_P2
2021/11/25 00:00:40;;;;;;;6.93;2.67;;;;;;;8.53;87.07;100752.09;5043034;28;20033;-63
2021/11/25 00:03:05;;;;;;;6.97;2.65;;;;;;;8.51;87.02;100746.28;5053129;28;20037;-68
2021/11/25 00:05:31;;;;;;;4.72;2.13;;;;;;;8.49;87.19;100741.28;5051961;28;20093;-65
2021/11/25 00:07:58;;;;;;;7.78;2.65;;;;;;;8.49;87.91;100735.91;5051156;28;20043;-68
2021/11/25 00:10:24;;;;;;;2.63;2.00;;;;;;;8.50;87.52;100732.09;5046796;28;20025;-63
2021/11/25 00:12:53;;;;;;;3.78;2.17;;;;;;;8.52;87.56;100729.06;5052793;28;20041;-65
2021/11/25 00:15:19;;;;;;;5.32;2.60;;;;;;;8.54;87.68;100722.25;5049370;28;20055;-64
2021/11/25 00:17:45;;;;;;;4.93;2.10;;;;;;;8.51;88.30;100712.19;5051195;28;20037;-65
2021/11/25 00:20:12;;;;;;;3.72;1.90;;;;;;;8.48;88.39;100717.47;5047976;28;20144;-65
2021/11/25 00:22:39;;;;;;;5.72;2.35;;;;;;;8.48;88.38;100706.72;5034052;28;20497;-66
2021/11/25 00:25:06;;;;;;;3.55;2.30;;;;;;;8.50;88.32;100705.25;5051864;28;20094;-65
2021/11/25 00:27:31;;;;;;;5.93;2.42;;;;;;;8.44;88.68;100697.78;5052356;28;20156;-65
2021/11/25 00:29:57;;;;;;;5.32;2.60;;;;;;;8.41;88.71;100699.25;5043644;28;20128;-63
2021/11/25 00:32:23;;;;;;;6.05;2.20;;;;;;;8.41;88.75;100712.66;5033256;28;20037;-65
2021/11/25 00:34:48;;;;;;;4.18;2.28;;;;;;;8.41;88.81;100720.72;5050921;28;20051;-65
2021/11/25 00:37:14;;;;;;;4.28;1.80;;;;;;;8.40;88.78;100708.41;5051155;28;20037;-65
2021/11/25 00:39:40;;;;;;;7.30;3.35;;;;;;;8.40;88.76;100711.06;5042636;28;20095;-66
2021/11/25 00:42:06;;;;;;;6.10;2.60;;;;;;;8.41;88.75;100709.19;5050084;28;20115;-66
2021/11/25 00:44:32;;;;;;;5.18;2.17;;;;;;;8.45;88.50;100704.72;5045462;28;20140;-64
2021/11/25 00:46:58;;;;;;;4.07;2.08;;;;;;;8.46;88.42;100695.56;5032887;28;20555;-63
2021/11/25 00:49:24;;;;;;;4.18;2.10;;;;;;;8.47;88.12;100689.06;5052716;28;20060;-67
2021/11/25 00:51:49;;;;;;;5.70;2.55;;;;;;;8.45;88.09;100680.56;5044704;28;20047;-64
2021/11/25 00:54:15;;;;;;;4.32;2.45;;;;;;;8.43;87.99;100680.91;5045159;28;20033;-64
2021/11/25 00:56:40;;;;;;;6.82;2.30;;;;;;;8.42;87.83;100673.97;5045935;28;20091;-65
2021/11/25 00:59:10;;;;;;;6.18;2.40;;;;;;;8.43;87.49;100678.22;5051909;28;20068;-65
2021/11/25 01:01:36;;;;;;;3.20;2.15;;;;;;;8.36;87.36;100669.97;5049351;28;20049;-64
2021/11/25 01:04:02;;;;;;;4.53;2.25;;;;;;;8.40;87.44;100670.84;5051263;28;20082;-64
2021/11/25 01:06:31;;;;;;;5.32;2.40;;;;;;;8.43;87.37;100670.16;5051216;28;20105;-67
2021/11/25 01:08:56;;;;;;;3.47;1.88;;;;;;;8.41;87.26;100663.56;5037822;28;20037;-64
2021/11/25 01:11:25;;;;;;;4.15;2.95;;;;;;;8.42;87.07;100662.47;5023652;28;20032;-65
2021/11/25 01:13:51;;;;;;;7.07;2.33;;;;;;;8.41;86.23;100656.31;5048731;28;20029;-65
2021/11/25 01:16:17;;;;;;;7.47;2.22;;;;;;;8.40;85.66;100660.09;5039686;28;20045;-65
2021/11/25 01:18:43;;;;;;;5.40;2.40;;;;;;;8.42;85.78;100673.97;5050127;28;20032;-64
2021/11/25 01:21:08;;;;;;;4.63;2.65;;;;;;;8.50;85.00;100669.56;5047446;28;20509;-65
2021/11/25 01:23:34;;;;;;;5.13;2.30;;;;;;;8.43;84.75;100661.34;5045687;28;20030;-64
2021/11/25 01:26:00;;;;;;;6.72;2.65;;;;;;;8.49;83.69;100665.34;5042700;28;20113;-65
2021/11/25 01:28:26;;;;;;;4.55;2.08;;;;;;;8.44;83.46;100655.63;5050446;28;20036;-63
2021/11/25 01:30:56;;;;;;;3.97;2.53;;;;;;;8.44;83.65;100660.22;5046458;28;20094;-65
2021/11/25 01:33:23;;;;;;;5.15;2.00;;;;;;;8.45;83.25;100664.47;5031818;28;20056;-65
2021/11/25 01:35:50;;;;;;;3.70;2.45;;;;;;;8.45;83.32;100662.56;5030845;28;20022;-66
2021/11/25 01:38:16;;;;;;;4.00;2.08;;;;;;;8.43;83.18;100646.03;5048069;28;20037;-64
2021/11/25 01:40:44;;;;;;;3.53;1.73;;;;;;;8.49;82.63;100644.66;5048689;28;20063;-63
2021/11/25 01:43:11;;;;;;;4.15;2.15;;;;;;;8.39;83.05;100634.41;5050038;28;20029;-66
2021/11/25 01:45:37;;;;;;;4.80;2.00;;;;;;;8.34;83.58;100625.81;5049125;28;20380;-65
2021/11/25 01:48:04;;;;;;;5.38;2.50;;;;;;;8.39;83.69;100622.88;5047112;28;20124;-65
2021/11/25 01:50:32;;;;;;;4.93;2.22;;;;;;;8.43;83.50;100610.34;5048906;28;20071;-63
2021/11/25 01:53:02;;;;;;;4.38;1.98;;;;;;;8.33;83.64;100608.94;5026899;28;20030;-65
2021/11/25 01:55:28;;;;;;;5.68;2.42;;;;;;;8.30;84.05;100615.00;5049831;28;20092;-64
2021/11/25 01:58:14;;;;;;;4.57;2.25;;;;;;;8.28;84.40;100611.88;5050500;28;22006;-64
2021/11/25 02:00:46;;;;;;;4.13;2.25;;;;;;;8.35;83.84;100606.69;4955585;28;20141;-63
2021/11/25 02:03:12;;;;;;;3.30;2.22;;;;;;;8.33;84.03;100600.09;4962917;28;20034;-64
2021/11/25 02:05:38;;;;;;;2.88;2.08;;;;;;;8.30;84.83;100596.22;4967444;28;20042;-64
2021/11/25 02:08:05;;;;;;;6.05;2.55;;;;;;;8.26;84.95;100592.66;4968956;28;20045;-65
2021/11/25 02:10:33;;;;;;;5.35;2.35;;;;;;;8.35;84.66;100589.81;4966669;28;20153;-64
2021/11/25 02:12:59;;;;;;;4.82;2.50;;;;;;;8.27;85.09;100586.16;4966438;28;20449;-67
2021/11/25 02:15:25;;;;;;;4.00;2.42;;;;;;;8.25;84.73;100590.28;4967393;28;20026;-64
2021/11/25 02:17:51;;;;;;;6.75;3.13;;;;;;;8.31;84.63;100580.88;4968911;28;20034;-64
2021/11/25 02:20:17;;;;;;;5.45;2.45;;;;;;;8.24;84.78;100581.44;4957556;28;20497;-67
2021/11/25 02:22:43;;;;;;;5.35;2.42;;;;;;;8.25;85.26;100576.88;4968714;28;20043;-65
2021/11/25 02:25:11;;;;;;;4.30;2.13;;;;;;;8.27;85.43;100571.94;4962076;28;20050;-63
2021/11/25 02:27:37;;;;;;;5.63;1.75;;;;;;;8.27;85.65;100571.94;4968582;28;20046;-65
2021/11/25 02:30:05;;;;;;;8.13;2.75;;;;;;;8.29;85.65;100561.66;4964723;28;20043;-64
2021/11/25 02:32:41;;;;;;;4.93;2.50;;;;;;;8.22;85.93;100551.50;4968640;28;20031;-64
2021/11/25 02:35:12;;;;;;;4.00;2.08;;;;;;;8.21;86.44;100558.75;4967804;28;20041;-65
2021/11/25 02:37:38;;;;;;;5.53;2.50;;;;;;;8.25;86.50;100558.88;5002112;28;20723;-64
2021/11/25 02:40:19;;;;;;;7.68;3.33;;;;;;;8.29;86.16;100545.56;5047669;28;20029;-65
2021/11/25 02:42:45;;;;;;;;;;;;;;;8.15;86.96;100537.88;5047903;28;20036;-65
2021/11/25 02:45:11;;;;;;;4.43;1.75;;;;;;;8.19;87.39;100536.06;5047793;28;20007;-64
2021/11/25 02:47:37;;;;;;;6.13;2.13;;;;;;;8.18;87.29;100526.47;5045006;28;20040;-65
2021/11/25 02:50:02;;;;;;;6.38;2.58;;;;;;;8.17;87.31;100524.91;5041504;28;20036;-66
2021/11/25 02:52:28;;;;;;;4.57;2.45;;;;;;;8.25;87.13;100521.34;5046705;28;20392;-65
2021/11/25 02:54:54;;;;;;;8.30;2.22;;;;;;;8.22;87.27;100522.00;5040550;28;20032;-65
2021/11/25 02:57:19;;;;;;;6.47;2.28;;;;;;;8.19;87.43;100517.31;5041681;28;20025;-65
2021/11/25 02:59:48;;;;;;;3.70;1.95;;;;;;;8.13;88.03;100507.94;5047175;28;20045;-65
2021/11/25 03:02:13;;;;;;;5.53;2.17;;;;;;;8.21;87.09;100509.69;5041108;28;20032;-64
2021/11/25 03:04:39;;;;;;;5.63;2.80;;;;;;;8.21;87.02;100497.06;5036489;28;20037;-65
2021/11/25 03:07:04;;;;;;;3.70;2.13;;;;;;;8.08;87.76;100495.56;5018446;28;20500;-65
2021/11/25 03:09:30;;;;;;;5.70;2.65;;;;;;;8.15;87.81;100489.59;5047248;28;20040;-64
2021/11/25 03:11:55;;;;;;;4.50;2.17;;;;;;;8.15;87.47;100482.34;5049306;28;20078;-65
2021/11/25 03:14:21;;;;;;;9.40;2.58;;;;;;;8.11;87.73;100484.16;5046206;28;20043;-65
2021/11/25 03:16:47;;;;;;;4.43;2.05;;;;;;;8.06;88.32;100468.31;5049067;28;20037;-66
2021/11/25 03:19:13;;;;;;;3.47;2.17;;;;;;;8.03;87.70;100466.31;5049790;28;20052;-64
2021/11/25 03:21:39;;;;;;;4.85;2.03;;;;;;;8.02;87.38;100458.59;5036715;28;20037;-65
2021/11/25 03:24:05;;;;;;;4.97;2.20;;;;;;;8.04;87.11;100451.78;5047496;28;20039;-65
2021/11/25 03:26:31;;;;;;;3.75;2.50;;;;;;;8.03;87.28;100460.94;5048866;28;20039;-64
2021/11/25 03:29:00;;;;;;;6.00;2.53;;;;;;;8.00;87.48;100455.47;5046266;28;20434;-63
2021/11/25 03:31:29;;;;;;;7.65;2.33;;;;;;;8.04;87.27;100461.72;5039144;28;20368;-65
2021/11/25 03:33:57;;;;;;;7.85;3.05;;;;;;;8.12;86.56;100450.06;5053657;28;20045;-62
2021/11/25 03:36:24;;;;;;;5.28;1.83;;;;;;;8.07;87.02;100442.28;5053705;28;20041;-64
2021/11/25 03:38:51;;;;;;;4.22;2.53;;;;;;;7.98;87.47;100437.06;5032924;28;20036;-65
2021/11/25 03:41:17;;;;;;;4.00;2.22;;;;;;;8.06;86.74;100444.19;5044708;28;20060;-64
2021/11/25 03:43:44;;;;;;;6.25;2.33;;;;;;;8.06;86.92;100443.41;5050029;28;20028;-64
2021/11/25 03:46:10;;;;;;;4.85;2.55;;;;;;;8.08;86.74;100441.94;5052823;28;20064;-64
2021/11/25 03:48:36;;;;;;;6.25;2.58;;;;;;;7.95;87.36;100436.97;5053322;28;20082;-65
2021/11/25 03:51:05;;;;;;;4.65;2.25;;;;;;;7.93;88.03;100441.91;5048146;28;20033;-65
2021/11/25 03:53:33;;;;;;;5.55;2.45;;;;;;;7.92;88.31;100437.63;5049293;28;20052;-65
2021/11/25 03:55:58;;;;;;;8.18;2.65;;;;;;;7.88;88.43;100434.09;5051309;28;20078;-67
2021/11/25 03:58:24;;;;;;;4.93;2.38;;;;;;;7.90;88.57;100435.31;5048940;28;20037;-63
2021/11/25 04:00:54;;;;;;;3.97;2.05;;;;;;;7.90;88.97;100439.88;5051752;28;20502;-63
2021/11/25 04:03:21;;;;;;;5.20;2.20;;;;;;;7.92;88.71;100435.75;5053096;28;20028;-65
2021/11/25 04:05:47;;;;;;;4.63;2.20;;;;;;;7.92;88.92;100440.31;5049103;28;20039;-65
2021/11/25 04:08:12;;;;;;;6.68;2.20;;;;;;;7.87;89.09;100437.91;5052557;28;20108;-66
2021/11/25 04:10:39;;;;;;;7.15;3.00;;;;;;;7.82;89.24;100432.78;5051787;28;20028;-66
2021/11/25 04:13:05;;;;;;;5.97;2.28;;;;;;;7.82;89.29;100428.19;5050116;28;20036;-66
2021/11/25 04:15:31;;;;;;;5.50;2.63;;;;;;;7.91;89.28;100431.53;5030156;28;20032;-65
2021/11/25 04:17:56;;;;;;;6.22;2.17;;;;;;;7.89;89.55;100439.13;5023473;28;20434;-64
2021/11/25 04:20:23;;;;;;;4.10;2.22;;;;;;;7.97;89.13;100437.41;5032083;28;20111;-65
2021/11/25 04:22:48;;;;;;;4.32;2.38;;;;;;;7.93;89.30;100440.00;5047865;28;20029;-66
2021/11/25 04:25:15;;;;;;;3.90;1.88;;;;;;;7.88;89.40;100432.19;5052206;28;20514;-65
2021/11/25 04:27:41;;;;;;;5.38;2.28;;;;;;;7.86;90.03;100428.28;5051839;28;20017;-65
2021/11/25 04:35:27;;;;;;;7.57;2.38;;;;;;;7.84;89.62;100417.91;5047405;28;20069;-66
2021/11/25 04:35:42;;;;;;;5.28;2.40;;;;;;;7.82;89.81;100411.34;5035591;28;20031;-65
2021/11/25 04:38:13;;;;;;;4.72;2.42;;;;;;;7.81;90.56;100410.56;5046892;28;20029;-65
2021/11/25 04:40:47;;;;;;;11.27;2.42;;;;;;;7.82;90.68;100406.75;5046544;28;20040;-64
2021/11/25 04:43:14;;;;;;;4.63;2.30;;;;;;;7.78;90.87;100397.06;5033218;28;20040;-64
2021/11/25 04:45:41;;;;;;;6.53;3.00;;;;;;;7.82;90.72;100401.38;5049837;28;20029;-64
2021/11/25 04:48:08;;;;;;;4.47;2.53;;;;;;;7.77;90.89;100395.50;5043299;28;20030;-61
2021/11/25 04:50:34;;;;;;;6.95;2.58;;;;;;;7.81;91.08;100399.06;5039025;28;20032;-65
2021/11/25 04:53:01;;;;;;;5.85;2.35;;;;;;;7.78;91.08;100389.03;5040421;28;20045;-65
2021/11/25 04:55:26;;;;;;;5.40;2.47;;;;;;;7.75;91.35;100393.16;5034358;28;20483;-64
2021/11/25 04:57:52;;;;;;;8.27;2.17;;;;;;;7.76;91.79;100391.28;5052024;28;20040;-62
2021/11/25 05:00:19;;;;;;;4.05;2.40;;;;;;;7.78;91.65;100389.78;5048473;28;20029;-63
2021/11/25 05:02:45;;;;;;;3.35;2.50;;;;;;;7.75;91.76;100392.38;5042699;28;20526;-65
2021/11/25 05:05:11;;;;;;;6.25;2.22;;;;;;;7.79;91.94;100385.22;5050680;28;20029;-65
2021/11/25 05:07:37;;;;;;;6.90;2.40;;;;;;;7.76;91.57;100383.22;5051178;28;20082;-63
2021/11/25 05:10:04;;;;;;;7.55;2.80;;;;;;;7.70;91.89;100377.34;5040376;28;20029;-62
2021/11/25 05:12:30;;;;;;;7.07;2.70;;;;;;;7.71;92.27;100367.38;5050634;28;20040;-63
2021/11/25 05:14:55;;;;;;;6.50;2.35;;;;;;;7.76;92.06;100373.28;5047011;28;20025;-64
2021/11/25 05:17:22;;;;;;;4.65;2.53;;;;;;;7.73;92.31;100376.66;5051109;28;20082;-65
2021/11/25 05:19:48;;;;;;;5.03;3.03;;;;;;;7.79;91.99;100374.50;5050139;28;20029;-65
2021/11/25 05:22:13;;;;;;;4.97;2.58;;;;;;;7.78;91.72;100375.63;5046489;28;20404;-64
2021/11/25 05:24:39;;;;;;;5.45;2.08;;;;;;;7.78;92.11;100362.22;5046629;28;20083;-65
2021/11/25 05:27:05;;;;;;;7.45;2.72;;;;;;;7.76;91.76;100364.47;5051033;28;20037;-64
2021/11/25 05:29:31;;;;;;;6.13;2.42;;;;;;;7.81;91.79;100356.97;5051122;28;20715;-64
2021/11/25 05:31:57;;;;;;;4.53;2.38;;;;;;;7.73;92.03;100357.88;5042346;28;20399;-65
2021/11/25 05:34:22;;;;;;;4.45;2.65;;;;;;;7.74;91.82;100358.66;5047136;28;20044;-64
2021/11/25 05:36:48;;;;;;;6.88;2.92;;;;;;;7.75;92.35;100352.97;5049125;28;20032;-65
2021/11/25 05:39:14;;;;;;;4.45;2.42;;;;;;;7.73;91.98;100349.06;5049889;28;20033;-64
2021/11/25 05:41:40;;;;;;;4.85;2.17;;;;;;;7.75;91.46;100352.19;5039226;28;20037;-64
2021/11/25 05:44:09;;;;;;;4.72;2.40;;;;;;;7.74;91.37;100350.63;5048285;28;20148;-66
2021/11/25 05:46:36;;;;;;;3.80;2.55;;;;;;;7.66;91.46;100341.63;5041299;28;20112;-65
2021/11/25 05:49:02;;;;;;;4.65;2.35;;;;;;;7.64;91.92;100345.75;5032254;28;20163;-64
2021/11/25 05:51:28;;;;;;;4.82;2.55;;;;;;;7.63;92.09;100344.19;5050309;23;20375;-66
2021/11/25 05:53:53;;;;;;;5.85;2.75;;;;;;;7.67;91.54;100340.50;4991181;28;20366;-67
2021/11/25 05:56:19;;;;;;;4.18;2.15;;;;;;;7.73;91.58;100338.34;4990749;28;20037;-67
2021/11/25 05:58:44;;;;;;;4.60;2.63;;;;;;;7.74;90.94;100329.19;4991852;28;20401;-67
2021/11/25 06:01:10;;;;;;;6.55;3.47;;;;;;;7.65;91.59;100323.97;4980681;28;20030;-68
2021/11/25 06:03:36;;;;;;;5.38;2.53;;;;;;;7.61;91.38;100308.91;4988830;28;20562;-68
2021/11/25 06:06:01;;;;;;;4.93;3.15;;;;;;;7.64;91.53;100313.59;4988401;28;20410;-67
2021/11/25 06:08:27;;;;;;;3.47;2.50;;;;;;;7.63;91.15;100310.13;4989184;28;20056;-68
2021/11/25 06:10:53;;;;;;;6.35;2.55;;;;;;;7.63;91.14;100310.13;4981582;28;20444;-68
2021/11/25 06:13:18;;;;;;;6.53;2.47;;;;;;;7.58;90.68;100305.03;4987735;28;20156;-67
2021/11/25 06:15:47;;;;;;;4.90;2.65;;;;;;;7.61;90.43;100308.91;4984505;28;20493;-67
2021/11/25 06:18:16;;;;;;;4.18;2.63;;;;;;;7.48;91.67;100310.09;4991267;28;20042;-68
2021/11/25 06:20:42;;;;;;;6.20;2.90;;;;;;;7.46;91.48;100298.94;4988364;28;20030;-67
2021/11/25 06:23:08;;;;;;;7.20;2.95;;;;;;;7.50;91.34;100299.81;4986267;28;20049;-66
2021/11/25 06:25:33;;;;;;;3.97;2.28;;;;;;;7.46;90.68;100307.00;4990151;28;20602;-67
2021/11/25 06:28:00;;;;;;;4.10;2.67;;;;;;;7.37;91.60;100298.34;4985174;28;20030;-66
2021/11/25 06:30:26;;;;;;;3.72;2.00;;;;;;;7.46;91.18;100296.28;4987280;28;20539;-67
2021/11/25 06:32:52;;;;;;;5.35;2.58;;;;;;;7.51;91.05;100294.13;4989811;28;20038;-67
2021/11/25 06:35:20;;;;;;;6.72;3.15;;;;;;;7.50;90.78;100299.81;4991122;28;20508;-67
2021/11/25 06:37:48;;;;;;;7.63;3.22;;;;;;;7.59;89.79;100289.75;4987982;28;20019;-67
2021/11/25 06:40:22;;;;;;;5.85;3.10;;;;;;;7.52;90.31;100295.69;4986783;28;20026;-67
2021/11/25 06:42:48;;;;;;;7.00;3.22;;;;;;;7.59;89.29;100284.41;4991015;28;20080;-67
2021/11/25 06:45:14;;;;;;;6.40;2.90;;;;;;;7.57;89.11;100275.91;4979488;28;20460;-67
2021/11/25 06:47:40;;;;;;;5.88;2.80;;;;;;;7.59;88.60;100281.72;4990865;28;20034;-68
2021/11/25 06:50:09;;;;;;;6.75;3.40;;;;;;;7.55;88.99;100295.00;4988241;28;20039;-67
2021/11/25 06:52:34;;;;;;;6.78;2.78;;;;;;;7.59;88.61;100276.38;5018826;28;20722;-66
2021/11/25 06:55:00;;;;;;;7.85;2.70;;;;;;;7.54;89.11;100280.06;5027753;28;20068;-67
2021/11/25 06:57:26;;;;;;;8.35;3.13;;;;;;;7.65;88.33;100272.28;5035517;28;20079;-67
2021/11/25 06:59:55;;;;;;;3.15;2.33;;;;;;;7.58;88.31;100269.44;5031080;28;20026;-68
2021/11/25 07:02:20;;;;;;;5.07;2.08;;;;;;;7.49;88.42;100264.22;5002444;28;20033;-67
2021/11/25 07:04:46;;;;;;;7.63;3.25;;;;;;;7.54;88.54;100257.84;5034497;28;20864;-66
2021/11/25 07:07:12;;;;;;;4.15;2.30;;;;;;;7.63;87.66;100255.78;5034601;28;20061;-67
2021/11/25 07:09:37;;;;;;;5.50;2.92;;;;;;;7.56;87.82;100251.03;5036524;28;20487;-68
2021/11/25 07:12:06;;;;;;;4.53;2.53;;;;;;;7.55;88.33;100236.06;5036367;28;20048;-66
2021/11/25 07:14:32;;;;;;;5.50;2.33;;;;;;;7.48;88.00;100245.81;5039442;28;20043;-68
2021/11/25 07:16:58;;;;;;;7.38;2.83;;;;;;;7.48;87.81;100245.81;5040742;28;20037;-68
2021/11/25 07:19:23;;;;;;;6.68;2.50;;;;;;;7.47;88.17;100247.72;5034910;28;20075;-66
2021/11/25 07:21:49;;;;;;;4.78;2.85;;;;;;;7.46;88.35;100251.53;5032490;28;20553;-65
2021/11/25 07:24:15;;;;;;;3.40;2.15;;;;;;;7.54;88.08;100255.16;5035029;28;20741;-68
2021/11/25 07:26:40;;;;;;;9.73;3.60;;;;;;;7.48;88.48;100246.59;5034954;28;20123;-68
2021/11/25 07:29:07;;;;;;;7.70;3.42;;;;;;;7.56;88.07;100242.19;5035768;28;20041;-67
2021/11/25 07:31:53;;;;;;;7.00;2.83;;;;;;;7.58;88.05;100234.59;5034942;28;20040;-67
2021/11/25 07:34:19;;;;;;;7.72;3.15;;;;;;;7.59;88.28;100236.94;4978741;28;20042;-68
2021/11/25 07:36:44;;;;;;;4.68;2.47;;;;;;;7.63;87.46;100237.78;4974602;28;20424;-67
2021/11/25 07:39:10;;;;;;;4.75;2.83;;;;;;;7.63;87.51;100227.09;4973385;28;20061;-67
2021/11/25 07:41:39;;;;;;;4.97;2.38;;;;;;;7.62;87.42;100227.44;4992477;28;20501;-67
2021/11/25 07:44:07;;;;;;;8.93;2.42;;;;;;;7.52;88.33;100225.25;4994399;28;20089;-67
2021/11/25 07:46:33;;;;;;;7.68;3.28;;;;;;;7.53;88.76;100226.84;4994243;28;20042;-67
2021/11/25 07:49:01;;;;;;;6.70;3.53;;;;;;;7.60;88.14;100217.06;4984699;28;20046;-68
2021/11/25 07:51:27;;;;;;;8.07;3.42;;;;;;;7.59;87.42;100220.84;4974283;28;20085;-67
2021/11/25 07:53:52;;;;;;;8.82;2.95;;;;;;;7.57;87.20;100217.75;4973365;28;20533;-66
2021/11/25 07:56:18;;;;;;;4.63;2.33;;;;;;;7.54;87.81;100212.28;4985056;28;20382;-67
2021/11/25 07:58:46;;;;;;;9.13;4.00;;;;;;;7.59;87.87;100212.81;4978043;28;20492;-68
2021/11/25 08:01:14;;;;;;;5.43;3.10;;;;;;;7.63;87.73;100202.97;4984068;28;20526;-67
2021/11/25 08:03:40;;;;;;;5.50;2.67;;;;;;;7.63;86.84;100199.50;4967116;28;20057;-67
2021/11/25 08:06:05;;;;;;;6.82;3.33;;;;;;;7.76;87.18;100199.06;4969501;28;20030;-67
2021/11/25 08:08:31;;;;;;;6.38;3.42;;;;;;;7.78;87.12;100191.47;4993188;28;20598;-67
2021/11/25 08:11:17;;;;;;;8.57;3.50;;;;;;;7.75;86.87;100186.81;5002249;28;20049;-67
2021/11/25 08:13:43;;;;;;;6.80;2.85;;;;;;;7.71;87.16;100195.88;4954004;28;20047;-67
2021/11/25 08:16:13;;;;;;;5.70;2.65;;;;;;;7.76;86.27;100199.06;4953335;28;20387;-68
2021/11/25 08:18:39;;;;;;;11.30;4.05;;;;;;;7.79;86.46;100182.31;4969196;28;20062;-69
2021/11/25 08:21:04;;;;;;;5.53;2.58;;;;;;;7.86;86.12;100171.75;4979779;28;20078;-68
2021/11/25 08:23:30;;;;;;;11.30;4.00;;;;;;;7.91;86.28;100176.06;4959857;28;20537;-67
2021/11/25 08:25:56;;;;;;;10.07;3.33;;;;;;;7.92;84.85;100169.56;4962862;28;20102;-67
2021/11/25 08:28:24;;;;;;;8.55;3.88;;;;;;;7.89;85.44;100163.03;4972394;28;20042;-67
2021/11/25 08:30:51;;;;;;;10.43;3.80;;;;;;;7.89;85.63;100165.69;4978335;28;20073;-67
2021/11/25 08:33:17;;;;;;;7.30;3.22;;;;;;;7.84;85.85;100175.91;4972292;28;20540;-66
2021/11/25 08:36:03;;;;;;;8.95;3.65;;;;;;;7.89;85.95;100164.91;4971072;28;20037;-66
2021/11/25 08:38:32;;;;;;;8.10;3.67;;;;;;;7.94;85.55;100162.75;4913734;29;20067;-66
2021/11/25 08:40:59;;;;;;;7.10;3.70;;;;;;;7.96;85.65;100159.72;4912076;29;20048;-66
2021/11/25 08:43:24;;;;;;;7.35;3.58;;;;;;;7.97;85.46;100166.63;4912678;29;20183;-66
2021/11/25 08:45:50;;;;;;;8.25;3.78;;;;;;;7.89;85.83;100154.97;4908595;29;20134;-66
2021/11/25 08:48:16;;;;;;;8.88;3.47;;;;;;;8.04;85.01;100161.41;4912409;29;20549;-66
2021/11/25 08:50:44;;;;;;;9.27;4.40;;;;;;;7.97;85.31;100156.69;4938263;28;20154;-66
2021/11/25 08:53:11;;;;;;;9.45;4.00;;;;;;;7.92;85.60;100153.47;4933711;28;20039;-66
2021/11/25 08:55:37;;;;;;;10.32;4.28;;;;;;;8.04;84.91;100154.16;4949169;28;20553;-67
2021/11/25 08:58:04;;;;;;;8.57;3.67;;;;;;;8.16;84.73;100158.63;4946171;28;20046;-66
2021/11/25 09:00:33;;;;;;;8.55;3.75;;;;;;;8.21;84.33;100150.31;4961341;28;20162;-66
2021/11/25 09:03:00;;;;;;;10.05;3.58;;;;;;;8.15;84.50;100143.66;4961159;28;20046;-66
2021/11/25 09:05:27;;;;;;;9.75;4.38;;;;;;;8.20;84.26;100130.00;4962106;28;20038;-66
2021/11/25 09:07:55;;;;;;;10.05;4.55;;;;;;;8.13;83.93;100132.50;4961283;28;20543;-66
2021/11/25 09:10:21;;;;;;;7.60;3.30;;;;;;;8.19;83.96;100131.88;4954370;28;20035;-66
2021/11/25 09:12:48;;;;;;;9.45;4.72;;;;;;;8.19;84.26;100129.19;4963963;28;20626;-66
2021/11/25 09:15:14;;;;;;;7.10;3.70;;;;;;;8.23;83.69;100123.91;4972970;28;20061;-66
2021/11/25 09:17:40;;;;;;;14.27;4.88;;;;;;;8.24;84.06;100130.84;5016745;28;20037;-66
2021/11/25 09:20:06;;;;;;;10.32;4.25;;;;;;;8.21;83.66;100136.88;5026563;28;20033;-66
2021/11/25 09:22:32;;;;;;;12.10;4.32;;;;;;;8.30;83.70;100142.88;5025279;28;20426;-66
2021/11/25 09:24:58;;;;;;;10.18;4.15;;;;;;;8.29;83.80;100144.00;5026771;28;20034;-66
2021/11/25 09:27:24;;;;;;;11.63;4.22;;;;;;;8.22;83.90;100146.50;5007731;28;20116;-66
2021/11/25 09:29:49;;;;;;;10.05;4.57;;;;;;;8.20;84.32;100144.19;5018062;28;20030;-66
2021/11/25 09:32:15;;;;;;;8.05;3.92;;;;;;;8.23;84.61;100143.47;5004187;28;20038;-66
2021/11/25 09:34:41;;;;;;;9.95;4.20;;;;;;;8.31;84.55;100140.94;5028012;28;20025;-66
2021/11/25 09:37:08;;;;;;;11.32;4.93;;;;;;;8.36;84.31;100133.44;5029335;28;20434;-67
2021/11/25 09:39:34;;;;;;;12.23;4.30;;;;;;;8.30;84.97;100134.84;5025356;28;20037;-66
2021/11/25 09:41:59;;;;;;;7.95;3.90;;;;;;;8.23;86.28;100129.28;5021657;28;20040;-66
2021/11/25 09:44:25;;;;;;;12.15;4.10;;;;;;;8.19;86.99;100125.72;5027862;28;20057;-66
2021/11/25 09:46:56;;;;;;;12.57;4.72;;;;;;;8.27;86.53;100132.06;5010616;28;20057;-66
2021/11/25 09:49:26;;;;;;;16.30;5.03;;;;;;;8.29;86.96;100119.84;5021449;28;20080;-67
2021/11/25 09:51:52;;;;;;;13.50;5.05;;;;;;;8.37;86.33;100126.13;5029068;28;20033;-67
2021/11/25 09:54:19;;;;;;;12.15;4.97;;;;;;;8.37;85.79;100123.44;5031544;28;20031;-67
2021/11/25 09:56:46;;;;;;;11.55;4.40;;;;;;;8.30;85.42;100124.09;5024487;28;20038;-68
2021/11/25 09:59:14;;;;;;;13.55;4.60;;;;;;;8.29;85.99;100114.50;5023959;28;20030;-66
2021/11/25 10:01:46;;;;;;;17.63;6.82;;;;;;;8.41;85.73;100116.25;5050186;27;20485;-68
2021/11/25 10:04:13;;;;;;;15.98;5.97;;;;;;;8.37;85.89;100105.47;5043118;28;20060;-68
2021/11/25 10:06:51;;;;;;;13.40;5.03;;;;;;;8.33;86.03;100109.97;5048210;28;20036;-68
2021/11/25 10:09:17;;;;;;;16.33;6.72;;;;;;;8.28;86.40;100099.53;5044631;28;20518;-67
2021/11/25 10:11:42;;;;;;;13.18;5.10;;;;;;;8.37;86.44;100092.03;5036203;28;20041;-68
2021/11/25 10:14:13;;;;;;;8.57;4.15;;;;;;;8.33;87.47;100095.78;5038348;28;20099;-68
2021/11/25 10:16:47;;;;;;;14.10;5.25;;;;;;;8.42;87.65;100091.75;5042660;28;20064;-68
2021/11/25 10:19:17;;;;;;;14.25;5.80;;;;;;;8.49;87.72;100091.13;5042228;28;20544;-67
2021/11/25 10:21:52;;;;;;;17.55;5.15;;;;;;;8.54;88.20;100088.13;5043445;28;20025;-67
2021/11/25 10:24:34;;;;;;;17.52;5.95;;;;;;;8.57;88.55;100082.88;5042734;28;20039;-68
2021/11/25 10:27:21;;;;;;;15.40;5.45;;;;;;;8.57;88.68;100082.09;5037630;28;20425;-67
2021/11/25 10:29:49;;;;;;;12.95;5.70;;;;;;;8.64;89.11;100085.66;5038470;28;20147;-67
2021/11/25 10:32:19;;;;;;;14.93;4.80;;;;;;;8.61;89.67;100074.88;5036035;28;20045;-68
2021/11/25 10:40:32;;;;;;;13.35;4.85;;;;;;;8.56;89.93;100059.03;5043197;28;20033;-68
2021/11/25 10:42:58;;;;;;;17.88;5.68;;;;;;;8.58;89.90;100049.53;5043172;28;20068;-67
2021/11/25 10:45:25;;;;;;;18.60;5.93;;;;;;;8.72;89.72;100047.09;5035494;28;20041;-68
2021/11/25 10:47:58;;;;;;;13.65;5.50;;;;;;;8.77;89.86;100044.09;5042232;28;20040;-68
2021/11/25 10:50:24;;;;;;;11.23;4.43;;;;;;;8.72;90.12;100031.00;5040173;28;20031;-68
2021/11/25 10:52:49;;;;;;;13.95;5.75;;;;;;;8.73;89.59;100037.91;5041817;28;20120;-68
2021/11/25 10:55:15;;;;;;;18.98;6.20;;;;;;;8.79;89.35;100031.09;5040728;28;20033;-68
2021/11/25 10:57:43;;;;;;;14.23;6.30;;;;;;;8.84;89.34;100028.13;5041231;28;20056;-68
2021/11/25 11:00:16;;;;;;;15.75;6.18;;;;;;;8.86;88.19;100030.47;5041626;28;20107;-68
2021/11/25 11:02:42;;;;;;;18.85;6.55;;;;;;;8.82;88.91;100027.72;5043367;28;20064;-68
2021/11/25 11:05:14;;;;;;;19.70;7.30;;;;;;;8.85;88.68;100020.84;5056254;28;20029;-68
2021/11/25 11:07:45;;;;;;;13.75;5.60;;;;;;;8.77;89.42;100016.47;5057419;28;20045;-68
2021/11/25 11:10:29;;;;;;;14.15;4.85;;;;;;;8.90;89.22;100013.25;5040460;28;20509;-67
2021/11/25 11:18:43;;;;;;;13.40;6.38;;;;;;;9.04;88.64;100015.38;5028899;28;20083;-68
2021/11/25 11:21:26;;;;;;;18.27;7.45;;;;;;;9.04;88.84;100010.03;5026600;28;20025;-68
2021/11/25 11:23:52;;;;;;;14.15;6.40;;;;;;;8.92;89.86;100008.31;5029282;28;20415;-67
2021/11/25 11:26:17;;;;;;;16.50;5.75;;;;;;;8.82;90.68;100016.19;5026284;28;20029;-67
2021/11/25 11:28:46;;;;;;;20.88;7.22;;;;;;;8.83;91.41;100017.72;5031825;28;20063;-67
2021/11/25 11:31:12;;;;;;;19.20;6.80;;;;;;;8.89;91.61;100019.78;5022098;28;20058;-67
2021/11/25 11:33:38;;;;;;;19.15;5.95;;;;;;;8.73;93.01;100016.44;5032900;28;20443;-67
2021/11/25 11:36:05;;;;;;;20.23;7.60;;;;;;;8.73;93.47;100013.75;5032527;28;20109;-67
2021/11/25 11:38:32;;;;;;;17.73;6.32;;;;;;;8.67;94.37;100011.72;5029462;28;20037;-67
2021/11/25 11:40:59;;;;;;;12.63;5.57;;;;;;;8.55;95.81;100010.00;5030998;28;20405;-67
2021/11/25 11:43:25;;;;;;;14.73;5.90;;;;;;;8.63;96.56;99994.78;5032554;28;20033;-67
2021/11/25 11:45:51;;;;;;;16.23;6.68;;;;;;;8.64;96.95;99986.38;5031038;28;20150;-68